^^
Saratoga-Weather Station Historical Data
Daily Summary for August 27, 2020 Units:  English    Metric   Both
Daily Weekly Monthly Yearly Custom
  High: Low: Average:
Temperature: 45.5 °F 40.5 °F 44.1 °F
Dew Point: 43.7 °F 40.1 °F 42.8 °F
Humidity: 99% 93% 95%
Wind Speed: 8.1mph 0mph 0.4mph
Wind Gust: 12mph - -
Wind- - SSE
Pressure: 30 in 29.5 in -
Precipitation: 0.58 in    
Historical Graphs
 
 
Tabular Data for August 27, 2020
Time Temperature Dew Point Pressure Wind Wind Speed Wind Gust Humidity Rainfall Rate (Hourly) solar
00:04 40.8 °F 40.3 °F 30 in Calm   1 mph 98% 0 in 0 W/m2
00:09 40.6 °F 40.1 °F 30 in Calm     98% 0 in 0 W/m2
00:14 40.5 °F 40.3 °F 30 in Calm   1 mph 99% 0 in 0 W/m2
00:19 40.6 °F 40.1 °F 30 in Calm     98% 0 in 0 W/m2
00:24 40.6 °F 40.5 °F 30 in Calm   2 mph 99% 0 in 0 W/m2
00:29 40.5 °F 40.3 °F 30 in Calm   1 mph 99% 0 in 0 W/m2
00:34 40.5 °F 40.3 °F 30 in Calm   2 mph 99% 0 in 0 W/m2
00:39 40.6 °F 40.1 °F 30 in Calm     98% 0 in 0 W/m2
00:45 41 °F 40.8 °F 30 in Calm   4 mph 99% 0 in 0 W/m2
00:50 41.5 °F 41 °F 30 in Calm     98% 0 in 0 W/m2
00:55 41.5 °F 41.4 °F 30 in Calm   4 mph 99% 0 in 0 W/m2
01:00 41.7 °F 41.5 °F 30 in Calm   1 mph 99% 0 in 0 W/m2
01:05 41.7 °F 41.5 °F 30 in Calm     99% 0 in 0 W/m2
01:10 41.7 °F 41.5 °F 30 in Calm     99% 0 in 0 W/m2
01:15 41.7 °F 41.5 °F 30 in Calm     99% 0 in 0 W/m2
01:20 41.7 °F 41.2 °F 30 in Calm   2 mph 98% 0 in 0 W/m2
01:25 41.7 °F 41.2 °F 30 in Calm   1 mph 98% 0 in 0 W/m2
01:30 41.9 °F 41.4 °F 30 in Calm   3 mph 98% 0 in 0 W/m2
01:35 41.7 °F 41.2 °F 30 in Calm     98% 0 in 0 W/m2
01:40 41.7 °F 41.2 °F 30 in Calm   1 mph 98% 0 in 0 W/m2
01:45 41.4 °F 41.2 °F 30 in Calm     99% 0 in 0 W/m2
01:50 41.4 °F 41.2 °F 30 in Calm     99% 0 in 0 W/m2
01:55 41.5 °F 41.4 °F 30 in West 2.9 mph 3 mph 99% 0 in 0 W/m2
02:00 41.5 °F 41 °F 30 in Calm   1 mph 98% 0 in 0 W/m2
02:05 41.5 °F 41 °F 30 in WSW 3 mph 3 mph 98% 0 in 0 W/m2
02:10 41.7 °F 41.2 °F 30 in Calm     98% 0 in 0 W/m2
02:15 41.9 °F 41.4 °F 30 in SSE 0.9 mph 7 mph 98% 0 in 0 W/m2
02:20 42.1 °F 41.9 °F 30 in Calm     99% 0 in 0 W/m2
02:25 42.1 °F 41.5 °F 30 in Calm   4 mph 98% 0 in 0 W/m2
02:30 41.9 °F 41.4 °F 30 in Calm   2 mph 98% 0 in 0 W/m2
02:35 42.1 °F 41.5 °F 30 in Calm   3 mph 98% 0 in 0 W/m2
02:40 42.3 °F 41.7 °F 30 in NE 0.9 mph 3 mph 98% 0 in 0 W/m2
02:45 42.3 °F 41.7 °F 30 in ENE 2.9 mph 4 mph 98% 0 in 0 W/m2
02:50 42.4 °F 41.9 °F 30 in Calm   1 mph 98% 0 in 0 W/m2
02:55 42.4 °F 41.9 °F 30 in NNW 0.9 mph 4 mph 98% 0 in 0 W/m2
03:00 42.4 °F 41.9 °F 30 in Calm     98% 0 in 0 W/m2
03:05 42.6 °F 42.1 °F 30 in Calm   4 mph 98% 0 in 0 W/m2
03:10 42.6 °F 42.1 °F 30 in Calm   2 mph 98% 0 in 0 W/m2
03:15 42.4 °F 41.9 °F 30 in Calm   3 mph 98% 0 in 0 W/m2
03:20 42.6 °F 42.1 °F 30 in NNE 2 mph 2 mph 98% 0 in 0 W/m2
03:25 42.6 °F 42.1 °F 30 in Calm     98% 0 in 0 W/m2
03:30 42.8 °F 42.3 °F 30 in Calm   6 mph 98% 0 in 0 W/m2
03:35 42.8 °F 42.3 °F 30 in Calm     98% 0 in 0 W/m2
03:40 43 °F 42.4 °F 30 in NE 2.9 mph 5 mph 98% 0 in 0 W/m2
03:45 43 °F 42.4 °F 30 in Calm     98% 0 in 0 W/m2
03:50 43.2 °F 42.4 °F 30 in Calm   1 mph 97% 0 in 0 W/m2
03:55 43.2 °F 42.4 °F 30 in Calm   3 mph 97% 0 in 0 W/m2
04:00 43.2 °F 42.4 °F 30 in ENE 2.9 mph 3 mph 97% 0 in 0 W/m2
04:05 43.3 °F 42.6 °F 30 in Calm     97% 0 in 0 W/m2
04:11 43.2 °F 42.4 °F 30 in ENE 2 mph 3 mph 97% 0 in 0 W/m2
04:16 43.2 °F 42.4 °F 30 in ENE 2 mph 3 mph 97% 0 in 0 W/m2
04:21 43 °F 42.3 °F 30 in Calm     97% 0 in 0 W/m2
04:26 43 °F 42.3 °F 30 in Calm     97% 0 in 0 W/m2
04:31 43.2 °F 42.4 °F 30 in NNE 0.9 mph 1 mph 97% 0 in 0 W/m2
04:36 43.2 °F 42.1 °F 30 in Calm   1 mph 96% 0 in 0 W/m2
04:41 43.2 °F 42.1 °F 30 in Calm   3 mph 96% 0 in 0 W/m2
04:46 43.3 °F 42.3 °F 30 in Calm   1 mph 96% 0 in 0 W/m2
04:51 43.3 °F 42.3 °F 30 in Calm   5 mph 96% 0 in 0 W/m2
04:56 43.5 °F 42.4 °F 30 in Calm   2 mph 96% 0 in 0 W/m2
05:01 43.9 °F 42.8 °F 30 in Calm   5 mph 96% 0 in 0 W/m2
05:06 44.1 °F 43 °F 29.9 in Calm     96% 0 in 0 W/m2
05:11 44.2 °F 43 °F 29.9 in Calm   1 mph 95% 0 in 0 W/m2
05:16 44.4 °F 43.2 °F 29.9 in Calm     95% 0 in 0 W/m2
05:21 44.6 °F 43 °F 29.9 in Calm   7 mph 94% 0 in 0 W/m2
05:26 44.6 °F 43 °F 29.9 in Calm   3 mph 94% 0 in 0 W/m2
05:31 44.8 °F 43.2 °F 29.9 in Calm   7 mph 94% 0 in 0 W/m2
05:36 44.8 °F 42.8 °F 29.9 in Calm   3 mph 93% 0 in 0 W/m2
05:41 44.8 °F 42.8 °F 29.9 in Calm   3 mph 93% 0 in 0 W/m2
05:47 44.8 °F 42.8 °F 29.9 in NE 2.9 mph 3 mph 93% 0 in 0 W/m2
05:52 44.8 °F 42.8 °F 29.9 in Calm   1 mph 93% 0 in 0 W/m2
05:57 44.8 °F 42.8 °F 29.9 in Calm     93% 0 in 0 W/m2
06:02 44.8 °F 42.8 °F 29.9 in Calm   1 mph 93% 0 in 0 W/m2
06:07 45 °F 43 °F 29.9 in Calm   1 mph 93% 0 in 0 W/m2
06:12 44.8 °F 42.8 °F 29.9 in North 2 mph 3 mph 93% 0 in 0 W/m2
06:17 44.8 °F 42.8 °F 29.9 in Calm   1 mph 93% 0.01 in 0 W/m2
06:22 44.8 °F 42.8 °F 29.9 in Calm   1 mph 93% 0.01 in 0 W/m2
06:27 44.8 °F 42.8 °F 29.9 in Calm   2 mph 93% 0.02 in 0 W/m2
06:32 44.8 °F 42.8 °F 29.9 in ENE 0.9 mph 1 mph 93% 0.02 in 0 W/m2
06:37 44.8 °F 42.8 °F 29.9 in Calm   1 mph 93% 0.02 in 0 W/m2
06:42 44.6 °F 42.6 °F 29.9 in Calm   6 mph 93% 0.02 in 0 W/m2
06:47 44.6 °F 42.6 °F 29.9 in NNW 0.9 mph 3 mph 93% 0.02 in 0 W/m2
06:52 44.4 °F 42.8 °F 29.9 in Calm   5 mph 94% 0.02 in 0 W/m2
06:57 44.4 °F 42.4 °F 29.9 in Calm   3 mph 93% 0.02 in 0 W/m2
07:02 44.4 °F 42.8 °F 29.9 in Calm   4 mph 94% 0.02 in 0 W/m2
07:07 44.2 °F 42.6 °F 29.9 in Calm     94% 0.02 in 0 W/m2
07:12 44.2 °F 42.6 °F 29.9 in Calm   1 mph 94% 0.02 in 0 W/m2
07:17 44.2 °F 42.6 °F 29.9 in Calm     94% 0.02 in 0 W/m2
07:22 44.1 °F 42.4 °F 29.9 in NNE 0.9 mph 1 mph 94% 0.02 in 0 W/m2
07:27 44.1 °F 42.4 °F 29.9 in East 2.9 mph 7 mph 94% 0.02 in 0 W/m2
07:32 44.1 °F 42.4 °F 29.9 in Calm     94% 0.01 in 0 W/m2
07:37 44.1 °F 42.4 °F 29.9 in Calm   1 mph 94% 0.01 in 0 W/m2
07:42 44.1 °F 42.4 °F 29.9 in North 2 mph 2 mph 94% 0.01 in 0 W/m2
07:47 44.1 °F 42.4 °F 29.9 in Calm   2 mph 94% 0.01 in 0 W/m2
07:52 44.1 °F 42.4 °F 29.9 in WNW 2 mph 5 mph 94% 0.01 in 0 W/m2
07:57 44.1 °F 42.4 °F 29.9 in NW 0.9 mph 4 mph 94% 0.01 in 0 W/m2
08:02 44.2 °F 42.6 °F 29.9 in NNE 4 mph 5 mph 94% 0.01 in 0 W/m2
08:07 44.1 °F 42.4 °F 29.9 in Calm   1 mph 94% 0.01 in 0 W/m2
08:12 44.1 °F 42.4 °F 29.9 in Calm   1 mph 94% 0.01 in 0 W/m2
08:18 44.2 °F 42.6 °F 29.9 in Calm     94% 0.01 in 0 W/m2
08:23 44.2 °F 42.6 °F 29.9 in Calm   2 mph 94% 0.02 in 0 W/m2
08:28 44.2 °F 42.6 °F 29.9 in NNE 4.9 mph 6 mph 94% 0.01 in 0 W/m2
08:33 44.2 °F 42.6 °F 29.9 in Calm     94% 0.01 in 5 W/m2
08:38 44.2 °F 42.6 °F 29.9 in Calm   6 mph 94% 0.01 in 5 W/m2
08:43 44.2 °F 42.6 °F 29.9 in NNE 2.9 mph 3 mph 94% 0.01 in 0 W/m2
08:48 44.1 °F 42.4 °F 29.9 in Calm   2 mph 94% 0.01 in 5 W/m2
08:53 44.2 °F 42.6 °F 29.9 in Calm   3 mph 94% 0.01 in 7 W/m2
08:58 44.2 °F 42.6 °F 29.9 in Calm   4 mph 94% 0.01 in 11 W/m2
09:03 44.2 °F 42.6 °F 29.9 in Calm   1 mph 94% 0.01 in 9 W/m2
09:08 44.2 °F 42.6 °F 29.9 in Calm   5 mph 94% 0.02 in 9 W/m2
09:13 44.2 °F 42.6 °F 29.9 in Calm   8 mph 94% 0.02 in 12 W/m2
09:18 44.2 °F 42.6 °F 29.9 in Calm   1 mph 94% 0.02 in 16 W/m2
09:23 44.4 °F 42.8 °F 29.9 in Calm   7 mph 94% 0.02 in 14 W/m2
09:28 44.2 °F 42.6 °F 29.9 in Calm     94% 0.02 in 14 W/m2
09:33 44.2 °F 42.6 °F 29.9 in Calm   1 mph 94% 0.03 in 18 W/m2
09:38 44.2 °F 42.6 °F 29.9 in Calm   4 mph 94% 0.04 in 28 W/m2
09:43 44.2 °F 42.6 °F 29.9 in Calm   4 mph 94% 0.04 in 19 W/m2
09:49 44.2 °F 42.6 °F 29.9 in Calm     94% 0.05 in 21 W/m2
09:54 44.2 °F 42.6 °F 29.9 in Calm   2 mph 94% 0.05 in 21 W/m2
09:59 44.2 °F 42.6 °F 29.9 in Calm   7 mph 94% 0.05 in 26 W/m2
10:04 44.2 °F 43 °F 29.9 in West 2.9 mph 4 mph 95% 0.05 in 19 W/m2
10:09 44.2 °F 43 °F 29.9 in Calm     95% 0.04 in 14 W/m2
10:14 44.2 °F 43 °F 29.9 in Calm   5 mph 95% 0.04 in 18 W/m2
10:19 44.2 °F 43 °F 29.9 in Calm   3 mph 95% 0.03 in 28 W/m2
10:24 44.2 °F 43 °F 29.9 in Calm   1 mph 95% 0.03 in 23 W/m2
10:29 44.2 °F 43 °F 29.9 in Calm   3 mph 95% 0.03 in 23 W/m2
10:34 44.4 °F 43.2 °F 29.9 in Calm   4 mph 95% 0.02 in 28 W/m2
10:39 44.4 °F 43.2 °F 29.9 in Calm     95% 0.02 in 35 W/m2
10:44 44.4 °F 43.2 °F 29.9 in Calm   1 mph 95% 0.02 in 32 W/m2
10:49 44.4 °F 43.2 °F 29.9 in South 0.9 mph 8 mph 95% 0.02 in 33 W/m2
10:55 44.4 °F 43.2 °F 29.9 in Calm   5 mph 95% 0.02 in 49 W/m2
11:00 44.6 °F 43.3 °F 29.9 in Calm   1 mph 95% 0.02 in 67 W/m2
11:05 44.6 °F 43.3 °F 29.9 in Calm   5 mph 95% 0.02 in 44 W/m2
11:10 44.8 °F 43.5 °F 29.9 in Calm   4 mph 95% 0.03 in 42 W/m2
11:15 44.8 °F 43.5 °F 29.9 in NE 0.9 mph 7 mph 95% 0.03 in 44 W/m2
11:20 44.8 °F 43.5 °F 29.9 in Calm   1 mph 95% 0.03 in 63 W/m2
11:25 44.8 °F 43.5 °F 29.9 in Calm   1 mph 95% 0.03 in 58 W/m2
11:30 45 °F 43.7 °F 29.9 in Calm   2 mph 95% 0.03 in 49 W/m2
11:35 45 °F 43.7 °F 29.9 in Calm     95% 0.03 in 44 W/m2
11:40 45 °F 43.7 °F 29.9 in Calm     95% 0.04 in 40 W/m2
11:46 45 °F 43.7 °F 29.8 in Calm   3 mph 95% 0.04 in 40 W/m2
11:51 45 °F 43.7 °F 29.8 in Calm   4 mph 95% 0.04 in 53 W/m2
11:56 45 °F 43.7 °F 29.8 in Calm   2 mph 95% 0.05 in 40 W/m2
12:01 45 °F 43.7 °F 29.8 in Calm   5 mph 95% 0.04 in 39 W/m2
12:06 45 °F 43.7 °F 29.8 in Calm   3 mph 95% 0.05 in 33 W/m2
12:11 45 °F 43.7 °F 29.8 in Calm     95% 0.05 in 32 W/m2
12:16 45 °F 43.7 °F 29.8 in Calm   2 mph 95% 0.05 in 40 W/m2
12:21 45 °F 43.7 °F 29.8 in Calm   1 mph 95% 0.06 in 40 W/m2
12:26 45 °F 43.7 °F 29.8 in Calm   7 mph 95% 0.06 in 30 W/m2
12:31 45 °F 43.7 °F 29.8 in Calm     95% 0.06 in 26 W/m2
12:36 45 °F 43.7 °F 29.8 in NW 0.9 mph 5 mph 95% 0.07 in 32 W/m2
12:41 45 °F 43.7 °F 29.8 in SSW 2.9 mph 3 mph 95% 0.07 in 42 W/m2
12:46 45 °F 43.7 °F 29.8 in NNE 0.9 mph 1 mph 95% 0.07 in 44 W/m2
12:51 45 °F 43.7 °F 29.8 in Calm   3 mph 95% 0.08 in 37 W/m2
12:56 45 °F 43.7 °F 29.8 in Calm   3 mph 95% 0.08 in 35 W/m2
13:01 45 °F 43.7 °F 29.8 in Calm     95% 0.09 in 35 W/m2
13:06 45 °F 43.7 °F 29.8 in Calm     95% 0.09 in 28 W/m2
13:11 45 °F 43.7 °F 29.8 in NW 0.9 mph 3 mph 95% 0.09 in 32 W/m2
13:16 45 °F 43.7 °F 29.8 in Calm   1 mph 95% 0.09 in 39 W/m2
13:21 45 °F 43.7 °F 29.8 in ENE 2 mph 2 mph 95% 0.09 in 39 W/m2
13:26 45 °F 43.7 °F 29.8 in Calm     95% 0.09 in 40 W/m2
13:31 45 °F 43.7 °F 29.8 in Calm     95% 0.09 in 32 W/m2
13:36 45 °F 43.7 °F 29.8 in Calm   1 mph 95% 0.08 in 32 W/m2
13:41 44.8 °F 43.5 °F 29.8 in Calm   4 mph 95% 0.08 in 28 W/m2
13:46 44.8 °F 43.5 °F 29.8 in NNE 0.9 mph 6 mph 95% 0.07 in 26 W/m2
13:51 44.8 °F 43.5 °F 29.8 in West 2 mph 4 mph 95% 0.06 in 25 W/m2
13:56 44.6 °F 43.3 °F 29.8 in Calm     95% 0.06 in 25 W/m2
14:01 44.6 °F 43.3 °F 29.8 in WSW 4.9 mph 5 mph 95% 0.05 in 30 W/m2
14:06 44.6 °F 43.3 °F 29.8 in Calm     95% 0.04 in 30 W/m2
14:11 44.6 °F 43.3 °F 29.8 in Calm     95% 0.03 in 28 W/m2
14:16 44.6 °F 43.3 °F 29.8 in Calm     95% 0.03 in 37 W/m2
14:21 44.6 °F 43.3 °F 29.8 in Calm   6 mph 95% 0.03 in 40 W/m2
14:26 44.8 °F 43.5 °F 29.8 in Calm   1 mph 95% 0.02 in 47 W/m2
14:31 44.8 °F 43.5 °F 29.8 in Calm   6 mph 95% 0.02 in 46 W/m2
14:36 44.8 °F 43.5 °F 29.8 in Calm     95% 0.02 in 35 W/m2
14:41 44.8 °F 43.5 °F 29.8 in Calm   1 mph 95% 0.02 in 42 W/m2
14:46 44.8 °F 43.5 °F 29.8 in Calm   2 mph 95% 0.02 in 26 W/m2
14:51 44.8 °F 43.5 °F 29.8 in Calm   1 mph 95% 0.02 in 26 W/m2
14:56 44.8 °F 43.5 °F 29.8 in Calm     95% 0.02 in 30 W/m2
15:01 44.8 °F 43.5 °F 29.8 in Calm   1 mph 95% 0.03 in 21 W/m2
15:06 44.8 °F 43.5 °F 29.8 in Calm   1 mph 95% 0.03 in 25 W/m2
15:11 44.8 °F 43.5 °F 29.8 in WSW 0.9 mph 1 mph 95% 0.04 in 25 W/m2
15:16 44.8 °F 43.5 °F 29.8 in Calm   4 mph 95% 0.04 in 23 W/m2
15:21 44.8 °F 43.5 °F 29.8 in Calm   2 mph 95% 0.04 in 26 W/m2
15:26 44.8 °F 43.5 °F 29.8 in Calm   4 mph 95% 0.05 in 23 W/m2
15:31 44.8 °F 43.5 °F 29.8 in Calm     95% 0.04 in 19 W/m2
15:37 44.8 °F 43.5 °F 29.8 in NNW 4 mph 4 mph 95% 0.05 in 14 W/m2
15:42 44.6 °F 43.3 °F 29.8 in Calm     95% 0.05 in 12 W/m2
15:47 44.8 °F 43.5 °F 29.7 in Calm     95% 0.05 in 16 W/m2
15:52 44.8 °F 43.5 °F 29.7 in Calm   2 mph 95% 0.05 in 19 W/m2
15:57 44.8 °F 43.5 °F 29.7 in Calm   4 mph 95% 0.06 in 16 W/m2
16:02 44.8 °F 43.5 °F 29.7 in Calm     95% 0.05 in 18 W/m2
16:07 44.8 °F 43.5 °F 29.7 in Calm   11 mph 95% 0.04 in 21 W/m2
16:12 44.8 °F 43.5 °F 29.7 in Calm     95% 0.04 in 21 W/m2
16:17 44.8 °F 43.5 °F 29.7 in Calm   8 mph 95% 0.03 in 21 W/m2
16:22 44.8 °F 43.5 °F 29.7 in Calm   3 mph 95% 0.04 in 18 W/m2
16:27 44.8 °F 43.5 °F 29.7 in Calm   2 mph 95% 0.03 in 16 W/m2
16:32 44.8 °F 43.5 °F 29.7 in NNE 0.9 mph 6 mph 95% 0.03 in 12 W/m2
16:37 44.8 °F 43.5 °F 29.7 in Calm     95% 0.02 in 11 W/m2
16:42 44.8 °F 43.5 °F 29.7 in ESE 0.9 mph 2 mph 95% 0.02 in 9 W/m2
16:47 44.8 °F 43.5 °F 29.7 in Calm   1 mph 95% 0.02 in 9 W/m2
16:52 44.8 °F 43.5 °F 29.7 in Calm   1 mph 95% 0.02 in 7 W/m2
16:57 44.8 °F 43.5 °F 29.7 in Calm     95% 0.02 in 7 W/m2
17:02 44.6 °F 43.3 °F 29.7 in Calm     95% 0.02 in 5 W/m2
17:07 44.6 °F 43.3 °F 29.7 in Calm   4 mph 95% 0.02 in 0 W/m2
17:12 44.6 °F 43.3 °F 29.7 in Calm     95% 0.02 in 0 W/m2
17:17 44.6 °F 43.3 °F 29.7 in Calm     95% 0.02 in 0 W/m2
17:22 44.6 °F 43.3 °F 29.7 in Calm     95% 0.02 in 0 W/m2
17:27 44.6 °F 43.3 °F 29.7 in Calm   3 mph 95% 0.02 in 0 W/m2
17:32 44.6 °F 43.3 °F 29.7 in Calm   3 mph 95% 0.03 in 0 W/m2
17:37 44.6 °F 43.3 °F 29.7 in Calm   2 mph 95% 0.03 in 0 W/m2
17:42 44.6 °F 43.3 °F 29.7 in Calm     95% 0.04 in 0 W/m2
17:47 44.6 °F 43.3 °F 29.7 in Calm   3 mph 95% 0.04 in 0 W/m2
17:52 44.6 °F 43.3 °F 29.7 in Calm   1 mph 95% 0.04 in 0 W/m2
17:57 44.6 °F 43.3 °F 29.7 in Calm     95% 0.04 in 0 W/m2
18:02 44.4 °F 43.2 °F 29.7 in WNW 2.9 mph 7 mph 95% 0.04 in 0 W/m2
18:07 44.4 °F 43.2 °F 29.7 in Calm   12 mph 95% 0.05 in 0 W/m2
18:12 44.4 °F 42.8 °F 29.7 in NW 2 mph 4 mph 94% 0.05 in 0 W/m2
18:18 44.2 °F 42.6 °F 29.7 in Calm   12 mph 94% 0.05 in 0 W/m2
18:23 44.2 °F 42.6 °F 29.7 in Calm   1 mph 94% 0.05 in 0 W/m2
18:28 44.1 °F 42.4 °F 29.7 in Calm   3 mph 94% 0.05 in 0 W/m2
18:33 43.9 °F 42.3 °F 29.7 in West 0.9 mph 4 mph 94% 0.04 in 0 W/m2
18:38 43.9 °F 42.3 °F 29.7 in Calm     94% 0.04 in 0 W/m2
18:43 43.9 °F 42.3 °F 29.7 in Calm     94% 0.03 in 0 W/m2
18:48 43.7 °F 42.1 °F 29.7 in Calm     94% 0.03 in 0 W/m2
18:53 43.5 °F 41.9 °F 29.7 in Calm     94% 0.02 in 0 W/m2
18:58 43.5 °F 41.9 °F 29.7 in Calm   2 mph 94% 0.03 in 0 W/m2
19:03 43.5 °F 41.9 °F 29.7 in Calm   1 mph 94% 0.02 in 0 W/m2
19:08 43.5 °F 41.9 °F 29.7 in Calm   1 mph 94% 0.02 in 0 W/m2
19:13 43.5 °F 41.9 °F 29.7 in Calm     94% 0.02 in 0 W/m2
19:18 43.5 °F 41.9 °F 29.7 in North 0.9 mph 2 mph 94% 0.02 in 0 W/m2
19:23 43.5 °F 41.9 °F 29.7 in Calm     94% 0.02 in 0 W/m2
19:28 43.5 °F 42.3 °F 29.7 in Calm     95% 0.02 in 0 W/m2
19:33 43.5 °F 42.3 °F 29.7 in Calm   4 mph 95% 0.02 in 0 W/m2
19:38 43.5 °F 42.3 °F 29.7 in Calm     95% 0.02 in 0 W/m2
19:43 43.5 °F 42.3 °F 29.6 in Calm   1 mph 95% 0.02 in 0 W/m2
19:48 43.7 °F 42.4 °F 29.6 in East 2 mph 4 mph 95% 0.02 in 0 W/m2
19:53 43.7 °F 42.4 °F 29.6 in Calm   1 mph 95% 0.02 in 0 W/m2
19:58 43.9 °F 42.6 °F 29.6 in Calm   3 mph 95% 0.02 in 0 W/m2
20:03 43.9 °F 42.6 °F 29.6 in Calm   1 mph 95% 0.02 in 0 W/m2
20:08 43.9 °F 42.6 °F 29.6 in Calm   3 mph 95% 0.02 in 0 W/m2
20:13 43.9 °F 42.6 °F 29.6 in West 0.9 mph 2 mph 95% 0.01 in 0 W/m2
20:18 44.1 °F 42.8 °F 29.6 in Calm   8 mph 95% 0.01 in 0 W/m2
20:23 44.1 °F 42.8 °F 29.6 in Calm     95% 0.02 in 0 W/m2
20:28 44.1 °F 42.8 °F 29.6 in Calm   8 mph 95% 0.02 in 0 W/m2
20:33 44.1 °F 42.8 °F 29.6 in Calm   5 mph 95% 0.02 in 0 W/m2
20:39 44.1 °F 42.8 °F 29.6 in NE 0.9 mph 11 mph 95% 0.02 in 0 W/m2
20:44 44.1 °F 42.8 °F 29.6 in Calm     95% 0.02 in 0 W/m2
20:49 44.1 °F 42.4 °F 29.6 in Calm     94% 0.02 in 0 W/m2
20:54 44.1 °F 42.4 °F 29.6 in Calm     94% 0.03 in 0 W/m2
20:59 44.1 °F 42.4 °F 29.6 in Calm   5 mph 94% 0.03 in 0 W/m2
21:04 44.1 °F 42.4 °F 29.6 in Calm   8 mph 94% 0.03 in 0 W/m2
21:09 44.1 °F 42.4 °F 29.6 in Calm   5 mph 94% 0.04 in 0 W/m2
21:14 44.1 °F 42.4 °F 29.6 in Calm   4 mph 94% 0.05 in 0 W/m2
21:19 44.1 °F 42.4 °F 29.6 in Calm     94% 0.05 in 0 W/m2
21:24 44.1 °F 42.4 °F 29.6 in NW 0.9 mph 3 mph 94% 0.05 in 0 W/m2
21:29 44.1 °F 42.4 °F 29.6 in NE 4.9 mph 8 mph 94% 0.05 in 0 W/m2
21:34 44.1 °F 42.4 °F 29.6 in Calm     94% 0.05 in 0 W/m2
21:39 44.2 °F 42.6 °F 29.6 in Calm   9 mph 94% 0.06 in 0 W/m2
21:44 44.2 °F 42.6 °F 29.6 in Calm   10 mph 94% 0.05 in 0 W/m2
21:49 44.2 °F 42.6 °F 29.6 in Calm     94% 0.06 in 0 W/m2
21:54 44.2 °F 42.6 °F 29.6 in Calm     94% 0.05 in 0 W/m2
21:59 44.2 °F 42.6 °F 29.6 in Calm     94% 0.05 in 0 W/m2
22:04 44.4 °F 42.8 °F 29.6 in Calm   1 mph 94% 0.05 in 0 W/m2
22:09 44.4 °F 42.8 °F 29.6 in Calm   1 mph 94% 0.04 in 0 W/m2
22:14 44.4 °F 42.8 °F 29.6 in Calm   1 mph 94% 0.03 in 0 W/m2
22:19 44.4 °F 42.8 °F 29.6 in Calm     94% 0.04 in 0 W/m2
22:24 44.4 °F 42.4 °F 29.6 in Calm   1 mph 93% 0.03 in 0 W/m2
22:29 44.4 °F 42.8 °F 29.6 in NNE 7 mph 7 mph 94% 0.02 in 0 W/m2
22:34 44.4 °F 42.8 °F 29.6 in Calm     94% 0.02 in 0 W/m2
22:39 44.4 °F 42.8 °F 29.5 in NE 0.9 mph 1 mph 94% 0.02 in 0 W/m2
22:44 44.4 °F 42.8 °F 29.5 in Calm   2 mph 94% 0.02 in 0 W/m2
22:49 44.4 °F 42.8 °F 29.5 in Calm   1 mph 94% 0.02 in 0 W/m2
22:54 44.4 °F 42.8 °F 29.5 in Calm   4 mph 94% 0.02 in 0 W/m2
22:59 44.4 °F 42.8 °F 29.5 in Calm   4 mph 94% 0.02 in 0 W/m2
23:04 44.4 °F 42.8 °F 29.5 in Calm     94% 0.03 in 0 W/m2
23:09 44.4 °F 42.8 °F 29.5 in NE 0.9 mph 1 mph 94% 0.03 in 0 W/m2
23:14 44.6 °F 43.3 °F 29.5 in Calm   8 mph 95% 0.03 in 0 W/m2
23:19 44.6 °F 43.3 °F 29.5 in Calm     95% 0.03 in 0 W/m2
23:24 44.8 °F 43.5 °F 29.5 in Calm   8 mph 95% 0.03 in 0 W/m2
23:29 45 °F 43.3 °F 29.5 in WNW 0.9 mph 7 mph 94% 0.03 in 0 W/m2
23:34 45 °F 43.3 °F 29.5 in South 8.1 mph 8 mph 94% 0.03 in 0 W/m2
23:39 45.1 °F 43.5 °F 29.5 in Calm   10 mph 94% 0.03 in 0 W/m2
23:44 45.3 °F 43.7 °F 29.5 in Calm     94% 0.02 in 0 W/m2
23:49 45.3 °F 43.7 °F 29.5 in Calm   3 mph 94% 0.02 in 0 W/m2
23:54 45.5 °F 43.5 °F 29.5 in Calm     93% 0.02 in 0 W/m2
23:59 45.5 °F 43.5 °F 29.5 in Calm   1 mph 93% 0.02 in 0 W/m2
Juneau County Weather
Compliments of Weather Underground - 4 mb